Time;durP1;ratioP1;P1;durP2;ratioP2;P2;SDS_P1;SDS_P2;PMS_P1;PMS_P2;Temp;Humidity;BMP_temperature;BMP_pressure;BME280_temperature;BME280_humidity;BME280_pressure;Samples;Min_cycle;Max_cycle;Signal;HPM_P1;HPM_P2
2022/07/15 00:01:54;;;;;;;7.93;1.87;;;13.70;80.90;;;;;;5037751;28;20549;-89
2022/07/15 00:04:19;;;;;;;8.40;2.30;;;13.70;80.90;;;;;;5036628;28;20198;-88
2022/07/15 00:06:45;;;;;;;11.57;2.23;;;13.70;81.00;;;;;;5036775;28;20176;-89
2022/07/15 00:09:11;;;;;;;8.80;1.60;;;13.60;81.50;;;;;;5051865;28;20267;-88
2022/07/15 00:11:36;;;;;;;9.13;1.90;;;13.60;81.90;;;;;;5051598;28;20651;-89
2022/07/15 00:14:02;;;;;;;7.87;1.73;;;13.50;82.20;;;;;;5051600;28;20219;-88
2022/07/15 00:16:27;;;;;;;13.23;2.40;;;13.40;82.30;;;;;;5036609;28;20157;-88
2022/07/15 00:18:53;;;;;;;10.53;2.27;;;13.40;82.40;;;;;;5051503;28;20219;-88
2022/07/15 00:21:19;;;;;;;9.20;2.40;;;13.40;82.20;;;;;;5051275;28;20173;-88
2022/07/15 00:23:44;;;;;;;8.43;2.50;;;13.30;82.60;;;;;;5036046;28;20625;-89
2022/07/15 00:26:10;;;;;;;9.47;1.67;;;13.20;82.50;;;;;;5036129;28;20729;-89
2022/07/15 00:28:36;;;;;;;11.97;2.27;;;13.20;82.40;;;;;;5035856;28;20545;-88
2022/07/15 00:31:01;;;;;;;7.93;2.17;;;13.20;82.40;;;;;;5050881;28;20307;-89
2022/07/15 00:33:27;;;;;;;11.27;2.03;;;13.20;82.50;;;;;;5036151;28;20204;-89
2022/07/15 00:35:52;;;;;;;10.50;2.63;;;13.30;82.20;;;;;;5036498;28;20196;-88
2022/07/15 00:38:18;;;;;;;8.73;1.80;;;13.30;82.40;;;;;;5036138;28;20176;-89
2022/07/15 00:40:45;;;;;;;10.40;2.43;;;13.30;82.20;;;;;;5035721;28;20188;-89
2022/07/15 00:43:11;;;;;;;8.20;2.13;;;13.40;82.50;;;;;;5051200;28;20250;-89
2022/07/15 00:45:37;;;;;;;10.20;1.97;;;13.50;82.80;;;;;;5051911;28;20177;-87
2022/07/15 00:48:03;;;;;;;10.20;2.33;;;13.50;83.00;;;;;;5051506;28;20183;-88
2022/07/15 00:50:30;;;;;;;11.60;1.90;;;13.50;82.90;;;;;;5036301;28;20172;-88
2022/07/15 00:53:16;;;;;;;13.40;1.80;;;13.60;82.40;;;;;;5036020;28;20196;-88
2022/07/15 00:55:43;;;;;;;9.87;1.93;;;13.60;82.10;;;;;;5034682;28;20169;-88
2022/07/15 00:58:18;;;;;;;9.50;1.83;;;13.70;81.80;;;;;;5050728;28;20241;-88
2022/07/15 01:00:46;;;;;;;7.77;1.70;;;13.70;81.60;;;;;;5052362;28;20168;-90
2022/07/15 01:03:14;;;;;;;12.03;1.97;;;13.70;81.40;;;;;;5050756;28;20251;-89
2022/07/15 01:05:41;;;;;;;7.27;1.53;;;13.70;81.20;;;;;;5035150;28;20172;-90
2022/07/15 01:08:06;;;;;;;6.70;1.53;;;13.70;80.90;;;;;;5050886;28;20202;-90
2022/07/15 01:10:35;;;;;;;6.93;1.73;;;13.70;80.40;;;;;;5033774;28;20284;-89
2022/07/15 01:13:02;;;;;;;9.93;2.30;;;13.70;80.10;;;;;;5050329;28;20197;-90
2022/07/15 01:15:31;;;;;;;9.97;1.60;;;13.70;79.70;;;;;;5050445;28;20172;-90
2022/07/15 01:17:58;;;;;;;11.77;2.10;;;13.70;79.90;;;;;;5033690;28;20181;-90
2022/07/15 01:20:23;;;;;;;10.97;1.83;;;13.70;80.30;;;;;;5050187;28;20269;-90
2022/07/15 01:22:49;;;;;;;8.50;1.63;;;13.60;80.60;;;;;;5035130;28;20280;-91
2022/07/15 01:25:14;;;;;;;6.20;1.50;;;13.60;80.30;;;;;;5034875;28;20184;-89
2022/07/15 01:27:41;;;;;;;5.60;1.70;;;13.50;80.60;;;;;;5033526;28;20180;-89
2022/07/15 01:30:08;;;;;;;6.50;1.77;;;13.60;80.70;;;;;;5050293;28;20200;-89
2022/07/15 01:32:33;;;;;;;11.87;1.73;;;13.50;80.60;;;;;;5049785;28;20682;-90
2022/07/15 01:35:00;;;;;;;5.03;1.40;;;13.60;80.40;;;;;;5033415;28;20187;-89
2022/07/15 01:37:25;;;;;;;8.50;1.67;;;13.60;80.00;;;;;;5033199;28;20204;-89
2022/07/15 01:39:51;;;;;;;9.17;1.80;;;13.70;79.50;;;;;;5034705;28;20655;-90
2022/07/15 01:42:17;;;;;;;8.60;1.60;;;13.70;79.50;;;;;;5049127;28;20694;-92
2022/07/15 01:44:43;;;;;;;4.43;1.40;;;13.70;79.90;;;;;;5050235;28;20270;-90
2022/07/15 01:47:08;;;;;;;5.10;1.30;;;13.70;80.80;;;;;;5049706;28;20248;-90
2022/07/15 01:49:34;;;;;;;8.73;1.60;;;13.70;81.10;;;;;;5049864;28;20173;-89
2022/07/15 01:52:02;;;;;;;9.63;2.13;;;13.70;81.30;;;;;;5034302;28;20197;-90
2022/07/15 01:54:30;;;;;;;12.97;2.03;;;13.70;81.60;;;;;;5049733;28;20180;-89
2022/07/15 01:56:55;;;;;;;6.27;1.37;;;13.60;82.40;;;;;;5049630;28;20180;-90
2022/07/15 01:59:22;;;;;;;8.53;2.10;;;13.60;82.90;;;;;;5049613;28;20172;-89
2022/07/15 02:01:48;;;;;;;9.13;1.53;;;13.60;83.20;;;;;;5034387;28;20343;-89
2022/07/15 02:04:14;;;;;;;10.70;2.40;;;13.50;83.50;;;;;;5049421;28;20669;-89
2022/07/15 02:06:41;;;;;;;10.63;2.20;;;13.40;83.50;;;;;;5049677;28;20219;-90
2022/07/15 02:09:07;;;;;;;7.07;1.43;;;13.50;82.40;;;;;;5049534;28;20173;-90
2022/07/15 02:11:33;;;;;;;7.50;1.50;;;13.50;81.70;;;;;;5049583;28;20192;-89
2022/07/15 02:13:59;;;;;;;4.67;1.50;;;13.60;79.70;;;;;;5033935;28;20227;-91
2022/07/15 02:16:25;;;;;;;6.30;2.90;;;13.70;79.50;;;;;;5049447;28;20212;-89
2022/07/15 02:18:52;;;;;;;5.40;1.37;;;13.70;79.40;;;;;;5032574;28;20267;-90
2022/07/15 02:21:17;;;;;;;4.27;1.27;;;13.70;79.30;;;;;;5049023;28;20176;-90
2022/07/15 02:23:43;;;;;;;2.50;0.90;;;13.70;78.90;;;;;;5049193;28;20204;-91
2022/07/15 02:26:09;;;;;;;2.33;1.17;;;13.80;78.60;;;;;;5032682;28;20173;-89
2022/07/15 02:28:34;;;;;;;3.63;1.10;;;13.80;77.80;;;;;;5033710;28;20541;-89
2022/07/15 02:31:00;;;;;;;4.23;1.40;;;13.90;77.40;;;;;;5048896;28;20180;-89
2022/07/15 02:33:26;;;;;;;4.37;1.37;;;13.90;77.00;;;;;;5048884;28;20287;-90
2022/07/15 02:35:51;;;;;;;9.63;1.53;;;14.00;76.90;;;;;;5033546;28;20591;-89
2022/07/15 02:38:17;;;;;;;3.40;1.10;;;14.10;76.70;;;;;;5048929;28;20183;-88
2022/07/15 02:40:44;;;;;;;5.70;1.00;;;14.00;76.30;;;;;;5048912;28;20193;-90
2022/07/15 02:43:09;;;;;;;5.07;1.17;;;14.00;76.30;;;;;;5048682;28;20291;-90
2022/07/15 02:45:37;;;;;;;5.67;1.40;;;13.80;77.30;;;;;;5048889;28;20254;-89
2022/07/15 02:48:03;;;;;;;6.47;1.23;;;13.80;78.20;;;;;;5048821;28;20172;-89
2022/07/15 02:50:29;;;;;;;5.50;1.13;;;13.70;78.30;;;;;;5048834;28;20172;-90
2022/07/15 02:52:55;;;;;;;5.43;1.40;;;13.70;78.10;;;;;;5031946;28;20192;-90
2022/07/15 02:55:20;;;;;;;7.80;1.33;;;13.80;77.80;;;;;;5033746;28;20176;-90
2022/07/15 02:57:46;;;;;;;3.47;1.53;;;13.80;78.00;;;;;;5033505;28;20172;-89
2022/07/15 03:00:16;;;;;;;7.00;1.60;;;13.80;78.40;;;;;;5048801;28;20173;-89
2022/07/15 03:02:41;;;;;;;8.10;1.63;;;13.80;78.80;;;;;;5033408;28;20678;-89
2022/07/15 03:05:08;;;;;;;6.77;1.37;;;13.80;79.40;;;;;;5048741;28;20218;-90
2022/07/15 03:07:33;;;;;;;8.77;1.83;;;13.80;79.60;;;;;;5032140;28;20270;-89
2022/07/15 03:09:59;;;;;;;11.03;1.93;;;13.70;80.20;;;;;;5032312;28;20180;-88
2022/07/15 03:12:25;;;;;;;6.30;1.90;;;13.60;81.20;;;;;;5048460;28;20197;-90
2022/07/15 03:14:50;;;;;;;5.03;1.50;;;13.70;81.20;;;;;;5048629;28;20619;-90
2022/07/15 03:17:16;;;;;;;8.57;1.90;;;13.70;81.10;;;;;;5033143;28;20184;-90
2022/07/15 03:19:42;;;;;;;7.07;2.13;;;13.70;80.80;;;;;;5048681;28;20228;-90
2022/07/15 03:22:07;;;;;;;7.70;1.67;;;13.80;80.00;;;;;;5048666;28;20204;-90
2022/07/15 03:24:33;;;;;;;9.90;2.03;;;13.80;79.80;;;;;;5048521;28;20230;-90
2022/07/15 03:26:59;;;;;;;9.40;1.93;;;13.80;79.90;;;;;;5048582;28;20625;-90
2022/07/15 03:29:26;;;;;;;5.63;1.47;;;13.80;80.00;;;;;;5033015;28;20522;-88
2022/07/15 03:31:52;;;;;;;11.47;2.07;;;13.70;80.10;;;;;;5048443;28;20243;-90
2022/07/15 03:34:18;;;;;;;9.30;1.70;;;13.80;80.00;;;;;;5031657;28;20223;-90
2022/07/15 03:36:44;;;;;;;5.17;1.57;;;13.80;80.30;;;;;;5031606;28;20181;-89
2022/07/15 03:39:09;;;;;;;6.37;1.90;;;13.80;80.40;;;;;;5032848;28;20264;-89
2022/07/15 03:41:35;;;;;;;8.10;1.53;;;13.80;80.50;;;;;;5032927;28;20204;-89
2022/07/15 03:44:02;;;;;;;5.87;2.13;;;13.70;80.60;;;;;;5032927;28;20287;-89
2022/07/15 03:46:29;;;;;;;8.90;2.30;;;13.80;80.80;;;;;;5048166;28;20173;-90
2022/07/15 03:48:55;;;;;;;5.40;1.70;;;13.80;80.80;;;;;;5048195;28;20307;-89
2022/07/15 03:51:21;;;;;;;9.40;2.13;;;13.80;80.60;;;;;;5032779;28;20726;-89
2022/07/15 03:53:46;;;;;;;12.60;2.90;;;13.90;80.60;;;;;;5048161;28;20558;-89
2022/07/15 03:56:12;;;;;;;7.50;1.97;;;13.90;80.80;;;;;;5031469;28;20180;-89
2022/07/15 03:58:38;;;;;;;9.13;1.97;;;13.90;80.90;;;;;;5048209;28;20257;-89
2022/07/15 04:01:04;;;;;;;8.40;1.60;;;13.90;80.90;;;;;;5031313;28;20185;-89
2022/07/15 04:03:30;;;;;;;8.90;2.17;;;14.00;80.90;;;;;;5031495;28;20232;-89
2022/07/15 04:05:55;;;;;;;9.67;2.00;;;14.00;80.90;;;;;;5049495;28;20176;-89
2022/07/15 04:08:22;;;;;;;8.93;1.93;;;14.00;81.10;;;;;;5051759;28;20554;-89
2022/07/15 04:10:47;;;;;;;8.63;1.83;;;14.00;81.20;;;;;;5051573;28;20184;-89
2022/07/15 04:13:13;;;;;;;10.07;2.30;;;14.00;81.10;;;;;;5051380;28;20197;-89
2022/07/15 04:15:38;;;;;;;6.87;1.50;;;14.10;81.00;;;;;;5051469;28;20181;-90
2022/07/15 04:18:04;;;;;;;11.17;1.70;;;14.10;81.20;;;;;;5036261;28;20180;-89
2022/07/15 04:20:30;;;;;;;7.83;2.00;;;14.10;81.30;;;;;;5036260;28;20207;-90
2022/07/15 04:22:55;;;;;;;9.33;2.20;;;14.00;81.40;;;;;;5052008;28;20208;-90
2022/07/15 04:25:21;;;;;;;10.50;1.80;;;14.00;81.80;;;;;;5051199;28;20543;-89
2022/07/15 04:27:48;;;;;;;8.67;1.60;;;13.90;81.60;;;;;;5051271;28;20199;-89
2022/07/15 04:30:14;;;;;;;6.60;1.80;;;14.00;81.60;;;;;;5051347;28;20697;-89
2022/07/15 04:32:40;;;;;;;6.77;1.67;;;14.00;81.70;;;;;;5051416;28;20200;-89
2022/07/15 04:35:07;;;;;;;11.70;2.30;;;14.00;81.40;;;;;;5052073;28;20620;-89
2022/07/15 04:37:32;;;;;;;7.20;2.10;;;14.00;81.20;;;;;;5051178;28;20193;-89
2022/07/15 04:39:58;;;;;;;7.53;1.83;;;14.10;81.30;;;;;;5034321;28;20189;-89
2022/07/15 04:42:24;;;;;;;6.13;1.50;;;14.10;81.30;;;;;;5051440;28;20248;-89
2022/07/15 04:44:50;;;;;;;8.80;2.07;;;14.10;81.00;;;;;;5051729;28;20180;-89
2022/07/15 04:47:16;;;;;;;11.03;1.60;;;14.10;80.90;;;;;;5050989;28;20184;-90
2022/07/15 04:52:27;;;;;;;9.20;1.83;;;14.20;80.50;;;;;;5036113;28;20226;-89
2022/07/15 04:54:53;;;;;;;8.80;1.90;;;14.20;79.80;;;;;;5050809;28;20718;-89
2022/07/15 04:57:19;;;;;;;8.47;1.50;;;14.20;79.90;;;;;;5051014;28;20608;-89
2022/07/15 04:59:44;;;;;;;9.60;2.40;;;14.20;79.70;;;;;;5050617;28;20549;-90
2022/07/15 05:02:10;;;;;;;6.17;1.50;;;14.30;79.60;;;;;;5050506;28;20208;-90
2022/07/15 05:04:35;;;;;;;9.77;1.70;;;14.30;79.20;;;;;;5034284;28;20176;-91
2022/07/15 05:07:01;;;;;;;5.20;1.30;;;14.30;78.70;;;;;;5050546;28;20183;-89
2022/07/15 05:09:27;;;;;;;6.37;1.70;;;14.30;79.40;;;;;;5035079;28;20215;-90
2022/07/15 05:11:52;;;;;;;10.43;2.20;;;14.20;79.70;;;;;;5050565;28;20261;-89
2022/07/15 05:14:18;;;;;;;7.50;1.70;;;14.20;80.30;;;;;;5050367;28;20615;-89
2022/07/15 05:16:43;;;;;;;4.80;1.90;;;14.10;80.60;;;;;;5049502;28;20191;-89
2022/07/15 05:19:09;;;;;;;5.67;1.77;;;14.10;80.60;;;;;;5034527;28;20192;-89
2022/07/15 05:21:35;;;;;;;7.40;1.70;;;14.10;80.40;;;;;;5034692;28;20291;-89
2022/07/15 05:24:01;;;;;;;8.77;2.13;;;14.20;80.50;;;;;;5049914;28;20204;-89
2022/07/15 05:26:27;;;;;;;11.07;2.00;;;14.00;80.60;;;;;;5050025;28;20188;-89
2022/07/15 05:28:52;;;;;;;5.57;1.83;;;14.10;80.30;;;;;;5050089;28;20177;-89
2022/07/15 05:31:18;;;;;;;6.80;1.83;;;14.20;79.70;;;;;;5034797;28;20180;-90
2022/07/15 05:33:43;;;;;;;7.40;1.93;;;14.30;79.60;;;;;;5049868;28;20203;-89
2022/07/15 05:36:13;;;;;;;5.87;2.00;;;14.40;79.60;;;;;;5049924;28;20188;-89
2022/07/15 05:38:39;;;;;;;3.43;1.50;;;14.50;79.20;;;;;;5049854;28;20181;-89
2022/07/15 05:41:05;;;;;;;7.83;1.60;;;14.50;78.90;;;;;;5049590;28;20200;-90
2022/07/15 05:43:30;;;;;;;5.43;2.47;;;14.60;78.90;;;;;;5049632;28;20303;-90
2022/07/15 05:45:56;;;;;;;13.60;2.47;;;14.60;78.70;;;;;;5049713;28;20179;-90
2022/07/15 05:48:22;;;;;;;10.63;1.90;;;14.70;78.40;;;;;;5049578;28;20639;-90
2022/07/15 05:50:47;;;;;;;6.50;1.53;;;14.80;78.00;;;;;;5049628;28;20169;-89
2022/07/15 05:53:13;;;;;;;4.70;1.40;;;14.80;77.70;;;;;;5049338;28;20228;-89
2022/07/15 05:55:39;;;;;;;7.90;1.57;;;14.80;77.50;;;;;;5034114;28;20256;-89
2022/07/15 05:58:07;;;;;;;8.93;2.07;;;14.80;77.90;;;;;;5034592;28;20208;-89
2022/07/15 06:00:32;;;;;;;9.20;1.70;;;14.90;78.10;;;;;;5049473;28;20183;-88
2022/07/15 06:02:58;;;;;;;12.37;2.60;;;14.80;78.80;;;;;;5050332;28;20201;-89
2022/07/15 06:05:24;;;;;;;9.90;1.83;;;14.90;78.40;;;;;;5049396;28;20184;-88
2022/07/15 06:07:50;;;;;;;8.13;2.10;;;14.80;77.70;;;;;;5033849;28;20196;-89
2022/07/15 06:10:15;;;;;;;9.47;2.10;;;14.90;78.10;;;;;;5033876;28;20582;-89
2022/07/15 06:12:41;;;;;;;7.60;1.80;;;14.80;77.80;;;;;;5049035;28;20196;-89
2022/07/15 06:15:07;;;;;;;11.27;2.37;;;14.80;78.30;;;;;;5049197;28;20227;-89
2022/07/15 06:17:33;;;;;;;6.53;1.77;;;14.80;78.00;;;;;;5032468;28;20176;-89
2022/07/15 06:19:59;;;;;;;9.83;2.10;;;14.80;78.40;;;;;;5033668;28;20173;-90
2022/07/15 06:22:25;;;;;;;6.90;1.90;;;14.80;78.10;;;;;;5048942;28;20203;-89
2022/07/15 06:24:50;;;;;;;5.73;1.77;;;15.00;78.10;;;;;;5033606;28;20176;-89
2022/07/15 06:27:16;;;;;;;7.27;1.90;;;15.10;78.10;;;;;;5033543;28;20188;-89
2022/07/15 06:29:42;;;;;;;9.00;1.80;;;15.20;78.20;;;;;;5048471;28;20533;-89
2022/07/15 06:32:08;;;;;;;5.47;1.40;;;15.10;76.90;;;;;;5048747;28;20215;-89
2022/07/15 06:34:34;;;;;;;8.73;1.60;;;15.00;77.20;;;;;;5048871;28;20234;-89
2022/07/15 06:36:59;;;;;;;12.73;1.80;;;15.10;77.20;;;;;;5049649;28;20172;-90
2022/07/15 06:39:25;;;;;;;9.30;1.90;;;15.00;77.40;;;;;;5048824;28;20271;-89
2022/07/15 06:41:50;;;;;;;10.23;2.20;;;14.80;77.30;;;;;;5048524;28;20686;-89
2022/07/15 06:44:16;;;;;;;15.57;1.83;;;14.80;77.30;;;;;;5032441;28;20172;-89
2022/07/15 06:46:42;;;;;;;9.17;1.93;;;15.00;78.00;;;;;;5032226;28;20223;-89
2022/07/15 06:49:08;;;;;;;6.47;1.60;;;15.10;78.10;;;;;;5048675;28;20177;-89
2022/07/15 06:51:34;;;;;;;9.60;1.70;;;15.10;77.40;;;;;;5048607;28;20262;-89
2022/07/15 06:53:59;;;;;;;7.60;1.60;;;15.10;76.70;;;;;;5033224;28;20215;-89
2022/07/15 06:56:25;;;;;;;5.90;1.67;;;15.10;76.80;;;;;;5032064;28;20183;-90
2022/07/15 06:58:50;;;;;;;5.50;1.57;;;15.20;76.60;;;;;;5048486;28;20184;-89
2022/07/15 07:01:16;;;;;;;5.85;1.92;;;15.30;76.00;;;;;;5048584;28;20561;-89
2022/07/15 07:03:42;;;;;;;11.63;1.92;;;15.50;76.00;;;;;;5048508;28;20573;-90
2022/07/15 07:06:08;;;;;;;8.35;2.00;;;15.70;75.60;;;;;;5048559;28;20184;-89
2022/07/15 07:08:34;;;;;;;4.85;1.60;;;15.70;75.30;;;;;;5033281;28;20177;-89
2022/07/15 07:10:59;;;;;;;5.57;1.75;;;15.70;75.00;;;;;;5032010;28;20699;-88
2022/07/15 07:13:25;;;;;;;8.23;1.70;;;15.90;75.00;;;;;;5048391;28;20196;-88
2022/07/15 07:15:50;;;;;;;7.55;1.75;;;15.80;74.40;;;;;;5048420;28;20559;-88
2022/07/15 07:18:16;;;;;;;5.35;1.58;;;15.80;75.40;;;;;;5048717;28;20587;-87
2022/07/15 07:20:45;;;;;;;8.38;1.60;;;15.80;75.20;;;;;;5034407;28;20177;-90
2022/07/15 07:23:10;;;;;;;5.78;1.70;;;15.70;74.60;;;;;;5048754;28;20316;-90
2022/07/15 07:25:36;;;;;;;6.13;1.80;;;15.60;74.30;;;;;;5048406;28;20646;-90
2022/07/15 07:28:03;;;;;;;7.03;1.35;;;15.50;74.30;;;;;;5031787;28;20662;-90
2022/07/15 07:30:30;;;;;;;10.77;2.05;;;15.50;74.30;;;;;;5031770;28;20168;-91
2022/07/15 07:32:55;;;;;;;6.47;1.70;;;15.40;74.90;;;;;;5048348;28;20254;-90
2022/07/15 07:35:21;;;;;;;7.63;1.77;;;15.40;76.80;;;;;;5048484;28;20176;-91
2022/07/15 07:37:46;;;;;;;6.73;1.73;;;15.20;77.70;;;;;;5048589;28;20643;-91
2022/07/15 07:40:12;;;;;;;10.38;1.77;;;15.20;78.70;;;;;;5048583;28;20249;-91
2022/07/15 07:42:40;;;;;;;9.20;2.30;;;15.00;79.50;;;;;;5051986;28;20284;-90
2022/07/15 07:45:06;;;;;;;6.87;1.60;;;14.80;81.00;;;;;;5052108;28;20161;-90
2022/07/15 07:47:37;;;;;;;6.60;1.67;;;14.80;81.70;;;;;;5052393;28;20303;-90
2022/07/15 07:50:04;;;;;;;5.65;1.67;;;15.00;82.00;;;;;;5052956;28;20168;-90
2022/07/15 07:52:29;;;;;;;6.17;1.50;;;15.10;81.70;;;;;;5052216;28;20204;-91
2022/07/15 07:54:55;;;;;;;6.32;1.35;;;15.20;81.90;;;;;;5051854;28;20177;-90
2022/07/15 07:57:20;;;;;;;3.40;1.00;;;15.30;81.60;;;;;;5051823;28;20181;-90
2022/07/15 07:59:46;;;;;;;3.35;1.25;;;15.30;81.50;;;;;;5035139;28;20192;-90
2022/07/15 08:02:12;;;;;;;3.90;1.55;;;15.40;80.70;;;;;;5035497;28;20228;-91
2022/07/15 08:04:38;;;;;;;7.13;2.95;;;15.50;80.30;;;;;;5052334;28;20177;-90
2022/07/15 08:07:06;;;;;;;2.90;1.20;;;15.60;80.10;;;;;;5035427;28;20267;-90
2022/07/15 08:09:31;;;;;;;7.30;1.27;;;15.70;80.20;;;;;;5051620;28;20173;-90
2022/07/15 08:11:57;;;;;;;6.75;1.15;;;15.70;79.70;;;;;;5051663;28;20287;-90
2022/07/15 08:14:24;;;;;;;3.10;0.90;;;15.80;79.90;;;;;;5034866;28;20173;-89
2022/07/15 08:16:50;;;;;;;4.72;0.93;;;16.00;79.10;;;;;;5051503;28;20634;-88
2022/07/15 08:19:16;;;;;;;5.95;1.45;;;15.90;75.70;;;;;;5051565;28;20199;-90
2022/07/15 08:21:43;;;;;;;7.35;1.30;;;16.00;76.30;;;;;;5051699;28;20203;-90
2022/07/15 08:24:09;;;;;;;3.20;0.80;;;16.20;76.10;;;;;;5051693;28;20204;-88
2022/07/15 08:26:35;;;;;;;12.90;2.80;;;16.40;77.20;;;;;;5034790;28;20180;-88
2022/07/15 08:29:01;;;;;;;4.00;1.23;;;16.30;75.80;;;;;;5034684;28;20177;-87
2022/07/15 08:31:27;;;;;;;4.40;1.23;;;16.30;74.70;;;;;;5051257;28;20694;-89
2022/07/15 08:33:53;;;;;;;7.10;1.08;;;16.50;75.30;;;;;;5051017;28;20181;-89
2022/07/15 08:36:19;;;;;;;2.85;0.93;;;16.50;73.60;;;;;;5052670;28;20215;-91
2022/07/15 08:38:48;;;;;;;8.02;1.70;;;16.20;74.30;;;;;;5061287;28;20180;-90
2022/07/15 08:41:15;;;;;;;7.65;1.73;;;16.40;75.50;;;;;;5057208;28;20216;-91
2022/07/15 08:43:41;;;;;;;3.75;1.25;;;16.30;75.50;;;;;;5041161;28;20539;-91
2022/07/15 08:46:07;;;;;;;3.60;1.30;;;16.40;74.90;;;;;;5056726;28;20296;-92
2022/07/15 08:48:36;;;;;;;3.78;1.08;;;16.30;74.20;;;;;;5036665;28;20183;-91
2022/07/15 08:51:05;;;;;;;10.57;1.42;;;16.30;74.90;;;;;;5050905;28;20177;-90
2022/07/15 08:53:31;;;;;;;5.93;1.15;;;16.50;74.20;;;;;;5035537;28;20176;-89
2022/07/15 08:55:58;;;;;;;5.53;1.30;;;16.50;73.10;;;;;;5051319;28;20273;-89
2022/07/15 08:58:24;;;;;;;6.88;1.38;;;16.30;71.60;;;;;;5050795;28;20267;-89
2022/07/15 09:00:49;;;;;;;2.90;1.30;;;16.60;72.30;;;;;;5050942;28;20264;-91
2022/07/15 09:03:16;;;;;;;4.85;1.20;;;16.90;72.40;;;;;;5050975;28;20201;-89
2022/07/15 09:05:41;;;;;;;7.60;1.23;;;17.00;71.80;;;;;;5033992;28;20172;-88
2022/07/15 09:08:10;;;;;;;4.30;1.73;;;17.20;71.50;;;;;;5035162;28;20173;-87
2022/07/15 09:10:50;;;;;;;5.80;1.42;;;17.30;70.10;;;;;;5033824;28;20181;-87
2022/07/15 09:13:23;;;;;;;5.75;1.13;;;17.30;69.80;;;;;;5050431;28;20230;-87
2022/07/15 09:15:50;;;;;;;6.43;1.85;;;17.20;69.10;;;;;;5050230;28;20196;-87
2022/07/15 09:18:18;;;;;;;3.95;1.15;;;17.30;68.80;;;;;;5050222;28;20188;-87
2022/07/15 09:20:44;;;;;;;4.32;1.20;;;17.10;66.40;;;;;;5034748;28;20548;-87
2022/07/15 09:23:16;;;;;;;3.20;1.20;;;17.60;66.40;;;;;;5050367;28;20725;-87
2022/07/15 09:25:42;;;;;;;10.43;5.47;;;17.90;64.30;;;;;;5050161;28;20650;-89
2022/07/15 09:28:08;;;;;;;3.47;1.20;;;18.00;63.90;;;;;;5049947;28;20172;-87
2022/07/15 09:36:20;;;;;;;3.00;0.80;;;17.20;63.20;;;;;;5034886;28;20168;-88
2022/07/15 09:38:51;;;;;;;5.53;1.42;;;17.40;63.30;;;;;;5034490;28;20207;-89
2022/07/15 09:41:40;;;;;;;6.05;1.80;;;17.50;64.70;;;;;;5032970;28;20197;-87
2022/07/15 09:44:10;;;;;;;3.08;0.93;;;17.50;61.90;;;;;;5049571;28;20564;-89
2022/07/15 09:46:49;;;;;;;4.97;1.00;;;17.40;62.40;;;;;;5049776;28;20606;-90
2022/07/15 09:49:37;;;;;;;4.82;1.50;;;17.50;61.60;;;;;;5050582;28;20183;-90
2022/07/15 09:52:11;;;;;;;5.63;1.38;;;17.70;62.90;;;;;;5033812;28;20200;-90
2022/07/15 09:54:39;;;;;;;3.83;1.08;;;17.80;62.10;;;;;;5049812;28;20181;-90
2022/07/15 09:57:11;;;;;;;4.60;1.35;;;17.70;62.70;;;;;;5050371;28;20507;-89
2022/07/15 09:59:37;;;;;;;5.72;1.30;;;18.00;62.70;;;;;;5049429;28;20714;-90
2022/07/15 10:02:03;;;;;;;5.03;1.15;;;18.20;62.90;;;;;;5032655;28;20227;-88
2022/07/15 10:04:30;;;;;;;6.95;1.00;;;18.10;62.00;;;;;;5048682;28;20631;-88
2022/07/15 10:06:59;;;;;;;2.10;0.60;;;17.70;64.50;;;;;;5049479;28;20169;-89
2022/07/15 10:09:27;;;;;;;3.25;1.00;;;17.90;63.90;;;;;;5034725;28;20192;-89
2022/07/15 10:11:56;;;;;;;7.70;1.05;;;18.10;65.50;;;;;;5049424;28;20196;-89
2022/07/15 10:14:53;;;;;;;6.30;1.42;;;18.30;65.00;;;;;;5049547;28;20184;-89
2022/07/15 10:17:37;;;;;;;2.47;0.82;;;18.20;64.40;;;;;;5050988;28;20172;-89
2022/07/15 10:20:22;;;;;;;3.60;0.90;;;18.60;62.80;;;;;;5049727;28;20200;-85
2022/07/15 10:23:03;;;;;;;4.45;0.98;;;18.60;62.10;;;;;;5032534;28;20216;-86
2022/07/15 10:25:46;;;;;;;4.75;0.90;;;19.00;63.10;;;;;;5049433;28;20185;-86
2022/07/15 10:28:33;;;;;;;5.97;1.13;;;18.60;60.60;;;;;;5048995;28;20168;-85
2022/07/15 10:31:21;;;;;;;3.60;0.95;;;18.30;61.90;;;;;;5049652;28;20171;-85
2022/07/15 10:34:02;;;;;;;5.30;1.13;;;18.70;63.70;;;;;;5049089;28;20225;-86
2022/07/15 10:36:47;;;;;;;5.18;1.00;;;18.60;62.80;;;;;;5048971;28;20254;-87
2022/07/15 10:39:14;;;;;;;2.33;0.88;;;19.10;60.80;;;;;;5033562;28;20157;-86
2022/07/15 10:41:58;;;;;;;3.85;1.15;;;19.20;61.00;;;;;;5033563;28;20209;-86
2022/07/15 10:44:47;;;;;;;3.72;0.98;;;19.20;61.90;;;;;;5033920;28;20191;-85
2022/07/15 10:47:12;;;;;;;5.88;1.40;;;19.20;61.00;;;;;;5033482;28;20192;-86
2022/07/15 10:49:46;;;;;;;4.78;1.08;;;19.70;61.10;;;;;;5049211;28;20203;-87
2022/07/15 10:52:17;;;;;;;2.67;0.80;;;19.90;59.50;;;;;;5032323;28;20193;-86
2022/07/15 10:54:43;;;;;;;4.45;0.90;;;19.50;59.80;;;;;;5048934;28;20172;-86
2022/07/15 10:57:09;;;;;;;6.60;1.35;;;19.50;60.40;;;;;;5033494;28;20258;-86
2022/07/15 10:59:46;;;;;;;8.98;1.23;;;19.70;61.20;;;;;;5049114;28;20630;-86
2022/07/15 11:02:15;;;;;;;6.13;1.50;;;19.70;61.90;;;;;;5033277;28;20200;-87
2022/07/15 11:04:42;;;;;;;4.88;1.27;;;19.20;63.20;;;;;;5033653;28;20173;-85
2022/07/15 11:07:09;;;;;;;3.60;1.15;;;18.90;61.40;;;;;;5033528;28;20169;-86
2022/07/15 11:09:44;;;;;;;5.97;1.08;;;18.80;62.30;;;;;;5033624;28;20568;-86
2022/07/15 11:12:11;;;;;;;3.00;1.00;;;19.00;61.60;;;;;;5048906;28;20188;-86
2022/07/15 11:14:48;;;;;;;4.93;0.80;;;19.10;61.70;;;;;;5034510;28;20539;-86
2022/07/15 11:17:17;;;;;;;4.57;1.08;;;18.70;61.10;;;;;;5052762;28;20180;-85
2022/07/15 11:19:45;;;;;;;4.55;1.00;;;18.80;60.40;;;;;;5037319;28;20704;-85
2022/07/15 11:22:11;;;;;;;6.20;1.75;;;17.90;61.80;;;;;;5036813;28;20197;-84
2022/07/15 11:24:37;;;;;;;4.85;1.15;;;18.10;63.00;;;;;;5035808;28;20230;-84
2022/07/15 11:27:02;;;;;;;3.20;0.85;;;18.00;62.10;;;;;;5037073;28;20179;-85
2022/07/15 11:29:47;;;;;;;4.15;1.25;;;18.10;63.50;;;;;;5052399;28;20196;-84
2022/07/15 11:32:14;;;;;;;3.80;1.15;;;18.00;64.60;;;;;;5052254;28;20571;-84
2022/07/15 11:34:45;;;;;;;4.32;0.93;;;17.70;64.90;;;;;;5036995;28;20634;-85
2022/07/15 11:37:12;;;;;;;8.32;1.50;;;17.70;65.20;;;;;;5036838;28;20161;-85
2022/07/15 11:39:38;;;;;;;5.90;1.20;;;17.70;66.90;;;;;;5052127;28;20168;-86
2022/07/15 11:44:50;;;;;;;4.22;1.40;;;18.00;65.30;;;;;;5037121;28;20180;-85
2022/07/15 11:47:16;;;;;;;3.13;1.00;;;18.00;66.20;;;;;;5036486;28;20252;-84
2022/07/15 11:49:43;;;;;;;1.30;0.80;;;18.00;66.70;;;;;;5036997;28;20169;-85
2022/07/15 11:52:12;;;;;;;8.13;1.40;;;18.10;66.20;;;;;;5051872;28;20193;-85
2022/07/15 11:54:40;;;;;;;8.52;2.45;;;18.20;65.50;;;;;;5036527;28;20176;-85
2022/07/15 11:57:08;;;;;;;4.70;0.90;;;18.20;66.00;;;;;;5036390;28;20177;-84
2022/07/15 11:59:34;;;;;;;3.63;0.95;;;18.20;65.20;;;;;;5036347;28;20172;-87
2022/07/15 12:02:06;;;;;;;2.88;0.98;;;18.30;64.90;;;;;;5051784;28;20563;-85
2022/07/15 12:04:32;;;;;;;4.38;1.00;;;18.50;65.60;;;;;;5036927;28;20161;-87
2022/07/15 12:06:58;;;;;;;5.70;1.30;;;18.30;63.70;;;;;;5051860;28;20709;-85
2022/07/15 12:09:24;;;;;;;4.47;1.10;;;18.70;64.60;;;;;;5051783;28;20260;-85
2022/07/15 12:11:50;;;;;;;3.38;1.00;;;18.90;63.90;;;;;;5034760;28;20655;-85
2022/07/15 12:14:21;;;;;;;3.97;1.13;;;19.40;60.90;;;;;;5036123;28;20263;-85
2022/07/15 12:16:52;;;;;;;4.35;1.42;;;19.60;59.90;;;;;;5035942;28;20172;-85
2022/07/15 12:19:29;;;;;;;3.60;0.98;;;19.90;59.70;;;;;;5035327;28;20172;-85
2022/07/15 12:21:57;;;;;;;5.32;1.20;;;20.20;57.80;;;;;;5035942;28;20689;-85
2022/07/15 12:24:44;;;;;;;6.15;1.33;;;20.10;58.90;;;;;;5035984;28;20180;-85
2022/07/15 12:27:11;;;;;;;3.00;1.00;;;19.80;59.70;;;;;;5035447;28;20149;-88
2022/07/15 12:29:37;;;;;;;5.35;1.15;;;20.10;59.30;;;;;;5052331;28;20520;-85
2022/07/15 12:32:09;;;;;;;5.80;1.50;;;20.20;59.10;;;;;;5051565;28;20199;-85
2022/07/15 12:34:47;;;;;;;5.97;1.23;;;19.80;58.80;;;;;;5034579;28;20177;-86
2022/07/15 12:37:33;;;;;;;3.75;1.20;;;19.20;60.60;;;;;;5036003;28;20285;-85
2022/07/15 12:40:12;;;;;;;5.07;1.60;;;19.40;62.40;;;;;;5050952;28;20279;-85
2022/07/15 12:42:42;;;;;;;8.02;1.42;;;19.70;61.90;;;;;;5035812;28;20211;-85
2022/07/15 12:45:13;;;;;;;5.32;1.30;;;20.20;61.30;;;;;;5051100;28;20179;-86
2022/07/15 12:48:09;;;;;;;6.15;1.35;;;19.70;61.50;;;;;;5035943;28;20518;-85
2022/07/15 12:50:46;;;;;;;6.22;1.25;;;19.50;60.80;;;;;;5035435;28;20187;-84
2022/07/15 12:53:13;;;;;;;7.15;1.00;;;19.20;61.00;;;;;;5050672;28;20208;-84
2022/07/15 12:55:47;;;;;;;3.70;1.30;;;19.00;60.10;;;;;;5035452;28;20215;-85
2022/07/15 12:58:16;;;;;;;8.57;1.33;;;19.00;61.20;;;;;;5035668;28;20603;-84
2022/07/15 13:00:43;;;;;;;4.22;1.05;;;19.40;60.80;;;;;;5050730;28;20176;-83